sensor_id;sensor_type;location;lat;lon;timestamp;pressure;altitude;pressure_sealevel;temperature;humidity
17764;BME280;22245;52.832;13.816;2022-08-19T00:00:11;100799.94;;;21.64;89.63
17764;BME280;22245;52.832;13.816;2022-08-19T00:03:36;100794.09;;;21.61;89.56
17764;BME280;22245;52.832;13.816;2022-08-19T00:06:59;100794.28;;;21.59;90.25
17764;BME280;22245;52.832;13.816;2022-08-19T00:10:21;100794.09;;;21.61;89.75
17764;BME280;22245;52.832;13.816;2022-08-19T00:13:44;100804.34;;;21.65;90.53
17764;BME280;22245;52.832;13.816;2022-08-19T00:17:07;100804.78;;;21.69;89.71
17764;BME280;22245;52.832;13.816;2022-08-19T00:20:30;100799.34;;;21.69;89.81
17764;BME280;22245;52.832;13.816;2022-08-19T00:23:52;100802.88;;;21.69;90.51
17764;BME280;22245;52.832;13.816;2022-08-19T00:27:14;100795.78;;;21.68;89.53
17764;BME280;22245;52.832;13.816;2022-08-19T00:30:46;100797.06;;;21.66;88.86
17764;BME280;22245;52.832;13.816;2022-08-19T00:34:08;100801.22;;;21.68;89.32
17764;BME280;22245;52.832;13.816;2022-08-19T00:37:31;100804.34;;;21.65;90.18
17764;BME280;22245;52.832;13.816;2022-08-19T00:40:55;100802.84;;;21.63;90.38
17764;BME280;22245;52.832;13.816;2022-08-19T00:44:19;100798.47;;;21.62;90.94
17764;BME280;22245;52.832;13.816;2022-08-19T00:47:46;100804.56;;;21.64;90.97
17764;BME280;22245;52.832;13.816;2022-08-19T00:51:08;100814.97;;;21.67;90.93
17764;BME280;22245;52.832;13.816;2022-08-19T00:54:31;100809.34;;;21.68;90.75
17764;BME280;22245;52.832;13.816;2022-08-19T00:57:56;100821.03;;;21.69;90.44
17764;BME280;22245;52.832;13.816;2022-08-19T01:01:19;100821.66;;;21.71;90.13
17764;BME280;22245;52.832;13.816;2022-08-19T01:04:41;100830.41;;;21.66;89.83
17764;BME280;22245;52.832;13.816;2022-08-19T01:08:04;100834.53;;;21.62;90.17
17764;BME280;22245;52.832;13.816;2022-08-19T01:11:30;100839.94;;;21.62;89.93
17764;BME280;22245;52.832;13.816;2022-08-19T01:14:53;100823.91;;;21.61;89.52
17764;BME280;22245;52.832;13.816;2022-08-19T01:18:19;100851.00;;;21.61;89.78
17764;BME280;22245;52.832;13.816;2022-08-19T01:21:45;100835.78;;;21.60;89.79
17764;BME280;22245;52.832;13.816;2022-08-19T01:25:09;100815.31;;;21.57;89.96
17764;BME280;22245;52.832;13.816;2022-08-19T01:28:36;100826.56;;;21.54;89.47
17764;BME280;22245;52.832;13.816;2022-08-19T01:32:02;100826.56;;;21.54;89.63
17764;BME280;22245;52.832;13.816;2022-08-19T01:35:26;100831.13;;;21.53;89.91
17764;BME280;22245;52.832;13.816;2022-08-19T01:38:48;100820.72;;;21.50;89.79
17764;BME280;22245;52.832;13.816;2022-08-19T01:42:12;100834.06;;;21.52;89.15
17764;BME280;22245;52.832;13.816;2022-08-19T01:45:34;100824.91;;;21.53;89.69
17764;BME280;22245;52.832;13.816;2022-08-19T01:48:56;100814.47;;;21.50;90.01
17764;BME280;22245;52.832;13.816;2022-08-19T01:52:18;100829.06;;;21.49;89.09
17764;BME280;22245;52.832;13.816;2022-08-19T01:55:42;100831.94;;;21.47;89.16
17764;BME280;22245;52.832;13.816;2022-08-19T01:59:10;100831.94;;;21.47;89.56
17764;BME280;22245;52.832;13.816;2022-08-19T02:02:33;100833.63;;;21.48;89.78
17764;BME280;22245;52.832;13.816;2022-08-19T02:05:57;100822.16;;;21.46;89.73
17764;BME280;22245;52.832;13.816;2022-08-19T02:09:20;100826.13;;;21.44;89.68
17764;BME280;22245;52.832;13.816;2022-08-19T02:12:41;100827.34;;;21.41;89.97
17764;BME280;22245;52.832;13.816;2022-08-19T02:16:05;100792.53;;;21.38;90.19
17764;BME280;22245;52.832;13.816;2022-08-19T02:19:27;100790.22;;;21.35;89.72
17764;BME280;22245;52.832;13.816;2022-08-19T02:22:49;100789.59;;;21.33;89.79
17764;BME280;22245;52.832;13.816;2022-08-19T02:26:11;100796.88;;;21.32;90.14
17764;BME280;22245;52.832;13.816;2022-08-19T02:29:33;100792.91;;;21.28;90.36
17764;BME280;22245;52.832;13.816;2022-08-19T02:32:57;100786.03;;;21.25;90.39
17764;BME280;22245;52.832;13.816;2022-08-19T02:36:19;100782.91;;;21.29;90.18
17764;BME280;22245;52.832;13.816;2022-08-19T02:39:41;100787.06;;;21.24;90.51
17764;BME280;22245;52.832;13.816;2022-08-19T02:43:04;100773.53;;;21.24;90.83
17764;BME280;22245;52.832;13.816;2022-08-19T02:46:30;100765.19;;;21.26;91.10
17764;BME280;22245;52.832;13.816;2022-08-19T02:49:53;100756.81;;;21.21;91.05
17764;BME280;22245;52.832;13.816;2022-08-19T02:53:15;100755.78;;;21.22;91.25
17764;BME280;22245;52.832;13.816;2022-08-19T02:56:39;100763.47;;;21.18;91.44
17764;BME280;22245;52.832;13.816;2022-08-19T03:00:05;100770.94;;;21.09;90.93
17764;BME280;22245;52.832;13.816;2022-08-19T03:03:28;100778.22;;;21.09;90.62
17764;BME280;22245;52.832;13.816;2022-08-19T03:06:51;100776.38;;;21.09;90.78
17764;BME280;22245;52.832;13.816;2022-08-19T03:10:19;100783.59;;;21.02;90.32
17764;BME280;22245;52.832;13.816;2022-08-19T03:13:40;100790.50;;;21.05;90.16
17764;BME280;22245;52.832;13.816;2022-08-19T03:17:04;100794.00;;;20.99;89.99
17764;BME280;22245;52.832;13.816;2022-08-19T03:20:26;100793.78;;;21.00;89.77
17764;BME280;22245;52.832;13.816;2022-08-19T03:23:49;100784.44;;;21.03;88.89
17764;BME280;22245;52.832;13.816;2022-08-19T03:27:12;100779.03;;;21.03;89.36
17764;BME280;22245;52.832;13.816;2022-08-19T03:30:34;100777.34;;;21.02;89.46
17764;BME280;22245;52.832;13.816;2022-08-19T03:33:56;100776.53;;;21.08;89.61
17764;BME280;22245;52.832;13.816;2022-08-19T03:37:18;100770.72;;;21.11;89.91
17764;BME280;22245;52.832;13.816;2022-08-19T03:40:42;100785.53;;;21.08;90.54
17764;BME280;22245;52.832;13.816;2022-08-19T03:44:04;100788.41;;;21.07;89.67
17764;BME280;22245;52.832;13.816;2022-08-19T03:47:36;100804.25;;;21.10;89.33
17764;BME280;22245;52.832;13.816;2022-08-19T03:50:58;100810.53;;;21.10;88.84
17764;BME280;22245;52.832;13.816;2022-08-19T03:54:21;100810.31;;;21.12;89.63
17764;BME280;22245;52.832;13.816;2022-08-19T03:57:45;100791.81;;;21.16;88.91
17764;BME280;22245;52.832;13.816;2022-08-19T04:01:09;100802.41;;;21.10;88.23
17764;BME280;22245;52.832;13.816;2022-08-19T04:04:32;100813.41;;;21.09;88.25
17764;BME280;22245;52.832;13.816;2022-08-19T04:07:54;100819.69;;;21.09;88.27
17764;BME280;22245;52.832;13.816;2022-08-19T04:11:19;100809.69;;;21.10;89.29
17764;BME280;22245;52.832;13.816;2022-08-19T04:15:03;100817.78;;;21.10;88.47
17764;BME280;22245;52.832;13.816;2022-08-19T04:18:26;100817.16;;;21.08;88.55
17764;BME280;22245;52.832;13.816;2022-08-19T04:21:55;100811.31;;;21.04;88.44
17764;BME280;22245;52.832;13.816;2022-08-19T04:25:17;100813.69;;;20.86;89.56
17764;BME280;22245;52.832;13.816;2022-08-19T04:28:39;100803.50;;;20.88;89.91
17764;BME280;22245;52.832;13.816;2022-08-19T04:32:03;100816.00;;;20.89;89.61
17764;BME280;22245;52.832;13.816;2022-08-19T04:35:34;100819.97;;;20.93;89.71
17764;BME280;22245;52.832;13.816;2022-08-19T04:38:58;100814.38;;;20.94;89.85
17764;BME280;22245;52.832;13.816;2022-08-19T04:42:21;100815.66;;;20.99;89.74
17764;BME280;22245;52.832;13.816;2022-08-19T04:46:04;100812.94;;;20.99;89.58
17764;BME280;22245;52.832;13.816;2022-08-19T04:49:28;100815.88;;;21.04;89.45
17764;BME280;22245;52.832;13.816;2022-08-19T04:52:50;100818.38;;;20.99;90.06
17764;BME280;22245;52.832;13.816;2022-08-19T04:56:16;100812.25;;;20.90;91.04
17764;BME280;22245;52.832;13.816;2022-08-19T04:59:39;100804.59;;;20.93;91.65
17764;BME280;22245;52.832;13.816;2022-08-19T05:03:01;100790.41;;;20.91;92.19
17764;BME280;22245;52.832;13.816;2022-08-19T05:06:28;100779.81;;;20.96;92.20
17764;BME280;22245;52.832;13.816;2022-08-19T05:09:53;100772.09;;;20.93;92.96
17764;BME280;22245;52.832;13.816;2022-08-19T05:13:19;100762.25;;;20.86;94.00
17764;BME280;22245;52.832;13.816;2022-08-19T05:16:41;100742.38;;;20.72;95.82
17764;BME280;22245;52.832;13.816;2022-08-19T05:20:03;100754.84;;;20.73;96.32
17764;BME280;22245;52.832;13.816;2022-08-19T05:23:44;100755.94;;;20.78;96.00
17764;BME280;22245;52.832;13.816;2022-08-19T05:27:06;100756.25;;;20.90;95.59
17764;BME280;22245;52.832;13.816;2022-08-19T05:30:28;100738.75;;;20.93;95.65
17764;BME280;22245;52.832;13.816;2022-08-19T05:34:06;100743.16;;;20.94;95.50
17764;BME280;22245;52.832;13.816;2022-08-19T05:37:39;100730.47;;;21.01;95.34
17764;BME280;22245;52.832;13.816;2022-08-19T05:41:06;100740.31;;;21.09;94.86
17764;BME280;22245;52.832;13.816;2022-08-19T05:44:30;100745.94;;;21.07;94.72
17764;BME280;22245;52.832;13.816;2022-08-19T05:47:52;100747.63;;;21.15;94.37
17764;BME280;22245;52.832;13.816;2022-08-19T05:51:15;100749.56;;;21.21;94.35
17764;BME280;22245;52.832;13.816;2022-08-19T05:54:37;100749.16;;;21.24;94.27
17764;BME280;22245;52.832;13.816;2022-08-19T05:58:01;100736.88;;;21.29;93.95
17764;BME280;22245;52.832;13.816;2022-08-19T06:01:25;100747.28;;;21.32;94.17
17764;BME280;22245;52.832;13.816;2022-08-19T06:04:47;100747.75;;;21.42;94.02
17764;BME280;22245;52.832;13.816;2022-08-19T06:08:09;100749.00;;;21.46;93.17
17764;BME280;22245;52.832;13.816;2022-08-19T06:11:34;100745.28;;;21.54;93.08
17764;BME280;22245;52.832;13.816;2022-08-19T06:14:58;100746.97;;;21.62;92.88
17764;BME280;22245;52.832;13.816;2022-08-19T06:18:21;100753.50;;;21.74;93.01
17764;BME280;22245;52.832;13.816;2022-08-19T06:21:45;100756.41;;;21.79;93.12
17764;BME280;22245;52.832;13.816;2022-08-19T06:25:08;100752.06;;;21.85;91.88
17764;BME280;22245;52.832;13.816;2022-08-19T06:28:30;100755.81;;;21.97;92.07
17764;BME280;22245;52.832;13.816;2022-08-19T06:31:56;100746.66;;;22.05;91.26
17764;BME280;22245;52.832;13.816;2022-08-19T06:35:18;100755.41;;;22.01;90.75
17764;BME280;22245;52.832;13.816;2022-08-19T06:38:40;100752.50;;;22.09;90.97
17764;BME280;22245;52.832;13.816;2022-08-19T06:42:06;100757.50;;;22.19;90.83
17764;BME280;22245;52.832;13.816;2022-08-19T06:45:30;100761.69;;;22.28;89.69
17764;BME280;22245;52.832;13.816;2022-08-19T06:49:00;100761.69;;;22.35;90.29
17764;BME280;22245;52.832;13.816;2022-08-19T06:52:23;100767.13;;;22.41;89.30
17764;BME280;22245;52.832;13.816;2022-08-19T06:55:45;100761.94;;;22.47;88.67
17764;BME280;22245;52.832;13.816;2022-08-19T06:59:09;100759.22;;;22.47;88.28
17764;BME280;22245;52.832;13.816;2022-08-19T07:02:31;100756.28;;;22.48;88.30
17764;BME280;22245;52.832;13.816;2022-08-19T07:05:54;100749.78;;;22.36;88.59
17764;BME280;22245;52.832;13.816;2022-08-19T07:09:18;100753.75;;;22.33;89.11
17764;BME280;22245;52.832;13.816;2022-08-19T07:12:40;100749.16;;;22.40;88.94
17764;BME280;22245;52.832;13.816;2022-08-19T07:16:04;100759.59;;;22.44;87.81
17764;BME280;22245;52.832;13.816;2022-08-19T07:19:27;100764.22;;;22.50;87.20
17764;BME280;22245;52.832;13.816;2022-08-19T07:22:51;100767.97;;;22.55;86.91
17764;BME280;22245;52.832;13.816;2022-08-19T07:26:19;100767.75;;;22.57;86.81
17764;BME280;22245;52.832;13.816;2022-08-19T07:29:47;100777.56;;;22.58;86.55
17764;BME280;22245;52.832;13.816;2022-08-19T07:33:17;100783.84;;;22.59;85.91
17764;BME280;22245;52.832;13.816;2022-08-19T07:36:40;100785.09;;;22.63;86.32
17764;BME280;22245;52.832;13.816;2022-08-19T07:40:04;100788.00;;;22.68;86.29
17764;BME280;22245;52.832;13.816;2022-08-19T07:43:26;100797.59;;;22.70;85.90
17764;BME280;22245;52.832;13.816;2022-08-19T07:46:56;100805.34;;;22.74;85.41
17764;BME280;22245;52.832;13.816;2022-08-19T07:50:21;100808.69;;;22.76;87.01
17764;BME280;22245;52.832;13.816;2022-08-19T07:53:43;100805.97;;;22.76;87.49
17764;BME280;22245;52.832;13.816;2022-08-19T07:57:07;100802.63;;;22.74;86.88
17764;BME280;22245;52.832;13.816;2022-08-19T08:00:29;100799.91;;;22.74;86.97
17764;BME280;22245;52.832;13.816;2022-08-19T08:03:52;100793.63;;;22.73;86.13
17764;BME280;22245;52.832;13.816;2022-08-19T08:07:32;100796.97;;;22.68;86.02
17764;BME280;22245;52.832;13.816;2022-08-19T08:11:11;100805.72;;;22.70;86.90
17764;BME280;22245;52.832;13.816;2022-08-19T08:14:39;100808.25;;;22.65;86.46
17764;BME280;22245;52.832;13.816;2022-08-19T08:18:03;100811.38;;;22.62;86.72
17764;BME280;22245;52.832;13.816;2022-08-19T08:21:26;100825.38;;;22.66;85.75
17764;BME280;22245;52.832;13.816;2022-08-19T08:24:48;100831.00;;;22.71;85.88
17764;BME280;22245;52.832;13.816;2022-08-19T08:28:10;100828.31;;;22.78;84.64
17764;BME280;22245;52.832;13.816;2022-08-19T08:31:39;100823.50;;;22.80;84.45
17764;BME280;22245;52.832;13.816;2022-08-19T08:35:01;100824.53;;;22.79;84.51
17764;BME280;22245;52.832;13.816;2022-08-19T08:38:23;100820.59;;;22.75;83.56
17764;BME280;22245;52.832;13.816;2022-08-19T08:41:53;100821.63;;;22.74;83.92
17764;BME280;22245;52.832;13.816;2022-08-19T08:45:17;100818.25;;;22.78;84.33
17764;BME280;22245;52.832;13.816;2022-08-19T08:48:45;100817.66;;;22.83;84.33
17764;BME280;22245;52.832;13.816;2022-08-19T08:52:17;100819.31;;;22.84;82.74
17764;BME280;22245;52.832;13.816;2022-08-19T08:55:40;100815.13;;;22.88;83.60
17764;BME280;22245;52.832;13.816;2022-08-19T08:59:05;100815.94;;;22.89;83.18
17764;BME280;22245;52.832;13.816;2022-08-19T09:02:30;100820.31;;;22.90;82.57
17764;BME280;22245;52.832;13.816;2022-08-19T09:06:00;100823.91;;;22.90;82.75
17764;BME280;22245;52.832;13.816;2022-08-19T09:09:29;100820.97;;;22.85;81.86
17764;BME280;22245;52.832;13.816;2022-08-19T09:13:00;100817.22;;;22.86;82.09
17764;BME280;22245;52.832;13.816;2022-08-19T09:16:29;100809.03;;;22.99;82.45
17764;BME280;22245;52.832;13.816;2022-08-19T09:19:56;100813.84;;;23.11;81.98
17764;BME280;22245;52.832;13.816;2022-08-19T09:23:22;100817.56;;;23.23;81.66
17764;BME280;22245;52.832;13.816;2022-08-19T09:26:46;100819.41;;;23.23;80.83
17764;BME280;22245;52.832;13.816;2022-08-19T09:30:16;100828.03;;;23.26;78.98
17764;BME280;22245;52.832;13.816;2022-08-19T09:33:38;100819.03;;;23.12;79.14
17764;BME280;22245;52.832;13.816;2022-08-19T09:37:01;100813.84;;;23.04;80.30
17764;BME280;22245;52.832;13.816;2022-08-19T09:40:25;100817.78;;;23.15;80.60
17764;BME280;22245;52.832;13.816;2022-08-19T09:43:51;100815.50;;;23.25;80.01
17764;BME280;22245;52.832;13.816;2022-08-19T09:47:14;100812.53;;;23.34;79.13
17764;BME280;22245;52.832;13.816;2022-08-19T09:50:39;100824.63;;;23.45;78.68
17764;BME280;22245;52.832;13.816;2022-08-19T09:54:11;100817.09;;;23.47;77.79
17764;BME280;22245;52.832;13.816;2022-08-19T09:57:34;100801.59;;;23.47;77.42
17764;BME280;22245;52.832;13.816;2022-08-19T10:00:57;100814.78;;;23.50;77.64
17764;BME280;22245;52.832;13.816;2022-08-19T10:04:19;100817.25;;;23.59;77.37
17764;BME280;22245;52.832;13.816;2022-08-19T10:07:44;100805.53;;;23.58;77.56
17764;BME280;22245;52.832;13.816;2022-08-19T10:11:08;100813.66;;;23.65;77.18
17764;BME280;22245;52.832;13.816;2022-08-19T10:14:52;100811.13;;;23.63;76.42
17764;BME280;22245;52.832;13.816;2022-08-19T10:18:15;100812.97;;;23.76;76.87
17764;BME280;22245;52.832;13.816;2022-08-19T10:21:39;100811.28;;;23.82;77.36
17764;BME280;22245;52.832;13.816;2022-08-19T10:25:00;100815.84;;;23.81;77.32
17764;BME280;22245;52.832;13.816;2022-08-19T10:28:22;100812.81;;;23.64;77.19
17764;BME280;22245;52.832;13.816;2022-08-19T10:31:45;100806.13;;;23.67;77.71
17764;BME280;22245;52.832;13.816;2022-08-19T10:35:22;100798.16;;;23.65;78.19
17764;BME280;22245;52.832;13.816;2022-08-19T10:38:50;100812.16;;;23.76;76.87
17764;BME280;22245;52.832;13.816;2022-08-19T10:42:17;100805.25;;;23.73;76.91
17764;BME280;22245;52.832;13.816;2022-08-19T10:45:39;100792.00;;;23.83;75.93
17764;BME280;22245;52.832;13.816;2022-08-19T10:49:13;100799.47;;;23.95;76.42
17764;BME280;22245;52.832;13.816;2022-08-19T10:52:37;100798.19;;;23.97;76.01
17764;BME280;22245;52.832;13.816;2022-08-19T10:55:58;100788.97;;;23.98;75.16
17764;BME280;22245;52.832;13.816;2022-08-19T10:59:37;100786.06;;;24.00;75.20
17764;BME280;22245;52.832;13.816;2022-08-19T11:02:59;100789.59;;;24.07;75.22
17764;BME280;22245;52.832;13.816;2022-08-19T11:06:23;100785.97;;;24.13;75.01
17764;BME280;22245;52.832;13.816;2022-08-19T11:09:45;100792.41;;;24.26;74.39
17764;BME280;22245;52.832;13.816;2022-08-19T11:13:08;100784.88;;;24.21;74.63
17764;BME280;22245;52.832;13.816;2022-08-19T11:16:29;100791.16;;;24.22;73.96
17764;BME280;22245;52.832;13.816;2022-08-19T11:19:52;100784.94;;;24.14;74.07
17764;BME280;22245;52.832;13.816;2022-08-19T11:23:15;100797.84;;;24.26;73.87
17764;BME280;22245;52.832;13.816;2022-08-19T11:26:39;100794.88;;;24.27;72.87
17764;BME280;22245;52.832;13.816;2022-08-19T11:30:02;100797.56;;;24.34;73.37
17764;BME280;22245;52.832;13.816;2022-08-19T11:33:26;100796.63;;;24.47;72.55
17764;BME280;22245;52.832;13.816;2022-08-19T11:36:50;100792.75;;;24.55;73.10
17764;BME280;22245;52.832;13.816;2022-08-19T11:40:13;100796.06;;;24.38;72.67
17764;BME280;22245;52.832;13.816;2022-08-19T11:43:36;100808.59;;;24.39;73.48
17764;BME280;22245;52.832;13.816;2022-08-19T11:47:00;100810.28;;;24.40;72.95
17764;BME280;22245;52.832;13.816;2022-08-19T11:50:28;100803.50;;;24.50;73.19
17764;BME280;22245;52.832;13.816;2022-08-19T11:53:51;100811.38;;;24.58;72.48
17764;BME280;22245;52.832;13.816;2022-08-19T11:57:14;100815.09;;;24.64;71.67
17764;BME280;22245;52.832;13.816;2022-08-19T12:00:38;100815.59;;;24.54;71.89
17764;BME280;22245;52.832;13.816;2022-08-19T12:04:03;100820.59;;;24.57;72.31
17764;BME280;22245;52.832;13.816;2022-08-19T12:07:25;100823.16;;;24.52;72.48
17764;BME280;22245;52.832;13.816;2022-08-19T12:10:47;100820.84;;;24.55;72.51
17764;BME280;22245;52.832;13.816;2022-08-19T12:14:13;100821.94;;;24.48;72.07
17764;BME280;22245;52.832;13.816;2022-08-19T12:17:36;100824.38;;;24.56;71.75
17764;BME280;22245;52.832;13.816;2022-08-19T12:20:58;100828.88;;;24.69;71.94
17764;BME280;22245;52.832;13.816;2022-08-19T12:24:21;100828.41;;;24.79;71.15
17764;BME280;22245;52.832;13.816;2022-08-19T12:27:44;100825.38;;;24.87;70.09
17764;BME280;22245;52.832;13.816;2022-08-19T12:31:18;100825.31;;;24.94;69.50
17764;BME280;22245;52.832;13.816;2022-08-19T12:34:41;100830.72;;;25.00;69.54
17764;BME280;22245;52.832;13.816;2022-08-19T12:38:03;100826.16;;;24.94;69.15
17764;BME280;22245;52.832;13.816;2022-08-19T12:41:25;100828.22;;;24.99;69.27
17764;BME280;22245;52.832;13.816;2022-08-19T12:44:47;100821.03;;;25.05;69.55
17764;BME280;22245;52.832;13.816;2022-08-19T12:48:11;100821.47;;;25.02;70.12
17764;BME280;22245;52.832;13.816;2022-08-19T12:51:53;100829.03;;;24.99;70.05
17764;BME280;22245;52.832;13.816;2022-08-19T12:55:15;100834.09;;;24.96;68.99
17764;BME280;22245;52.832;13.816;2022-08-19T12:58:39;100838.44;;;25.04;69.77
17764;BME280;22245;52.832;13.816;2022-08-19T13:02:12;100837.38;;;25.05;71.34
17764;BME280;22245;52.832;13.816;2022-08-19T13:05:36;100830.53;;;24.95;72.03
17764;BME280;22245;52.832;13.816;2022-08-19T13:08:58;100831.38;;;24.96;72.16
17764;BME280;22245;52.832;13.816;2022-08-19T13:12:20;100827.66;;;24.90;71.96
17764;BME280;22245;52.832;13.816;2022-08-19T13:15:44;100828.81;;;24.82;72.10
17764;BME280;22245;52.832;13.816;2022-08-19T13:19:06;100827.94;;;24.82;72.29
17764;BME280;22245;52.832;13.816;2022-08-19T13:22:29;100833.56;;;24.87;71.89
17764;BME280;22245;52.832;13.816;2022-08-19T13:25:59;100826.75;;;24.78;73.08
17764;BME280;22245;52.832;13.816;2022-08-19T13:29:22;100831.34;;;24.77;73.55
17764;BME280;22245;52.832;13.816;2022-08-19T13:33:02;100826.84;;;24.64;73.92
17764;BME280;22245;52.832;13.816;2022-08-19T13:36:36;100817.88;;;24.57;73.95
17764;BME280;22245;52.832;13.816;2022-08-19T13:40:00;100817.00;;;24.63;73.90
17764;BME280;22245;52.832;13.816;2022-08-19T13:43:25;100812.16;;;24.65;74.21
17764;BME280;22245;52.832;13.816;2022-08-19T13:46:49;100823.22;;;24.70;73.91
17764;BME280;22245;52.832;13.816;2022-08-19T13:50:15;100820.19;;;24.85;73.68
17764;BME280;22245;52.832;13.816;2022-08-19T13:53:39;100804.69;;;25.05;72.21
17764;BME280;22245;52.832;13.816;2022-08-19T13:57:08;100812.31;;;25.14;72.22
17764;BME280;22245;52.832;13.816;2022-08-19T14:00:33;100804.38;;;25.13;71.94
17764;BME280;22245;52.832;13.816;2022-08-19T14:03:55;100803.31;;;25.14;71.48
17764;BME280;22245;52.832;13.816;2022-08-19T14:07:17;100794.22;;;25.20;70.62
17764;BME280;22245;52.832;13.816;2022-08-19T14:10:39;100786.06;;;25.20;70.39
17764;BME280;22245;52.832;13.816;2022-08-19T14:14:02;100789.91;;;25.31;71.23
17764;BME280;22245;52.832;13.816;2022-08-19T14:17:24;100793.38;;;25.38;70.72
17764;BME280;22245;52.832;13.816;2022-08-19T14:20:46;100795.44;;;25.24;71.19
17764;BME280;22245;52.832;13.816;2022-08-19T14:24:08;100798.63;;;25.21;71.61
17764;BME280;22245;52.832;13.816;2022-08-19T14:27:32;100803.47;;;25.19;71.53
17764;BME280;22245;52.832;13.816;2022-08-19T14:30:55;100803.78;;;25.11;71.89
17764;BME280;22245;52.832;13.816;2022-08-19T14:34:17;100805.44;;;25.12;72.18
17764;BME280;22245;52.832;13.816;2022-08-19T14:37:39;100808.91;;;25.19;72.08
17764;BME280;22245;52.832;13.816;2022-08-19T14:41:18;100813.13;;;25.34;72.09
17764;BME280;22245;52.832;13.816;2022-08-19T14:44:40;100805.44;;;25.49;70.41
17764;BME280;22245;52.832;13.816;2022-08-19T14:48:06;100807.91;;;25.69;70.87
17764;BME280;22245;52.832;13.816;2022-08-19T14:51:38;100816.00;;;25.76;68.75
17764;BME280;22245;52.832;13.816;2022-08-19T14:55:00;100812.09;;;25.84;68.64
17764;BME280;22245;52.832;13.816;2022-08-19T14:58:27;100810.41;;;26.01;67.69
17764;BME280;22245;52.832;13.816;2022-08-19T15:01:49;100810.28;;;25.96;68.15
17764;BME280;22245;52.832;13.816;2022-08-19T15:05:13;100806.00;;;26.00;67.80
17764;BME280;22245;52.832;13.816;2022-08-19T15:08:36;100813.94;;;26.02;67.13
17764;BME280;22245;52.832;13.816;2022-08-19T15:11:59;100812.50;;;25.88;67.72
17764;BME280;22245;52.832;13.816;2022-08-19T15:15:22;100813.13;;;25.71;68.75
17764;BME280;22245;52.832;13.816;2022-08-19T15:18:45;100817.31;;;25.55;69.12
17764;BME280;22245;52.832;13.816;2022-08-19T15:22:11;100820.56;;;25.45;70.35
17764;BME280;22245;52.832;13.816;2022-08-19T15:25:34;100821.56;;;25.32;70.15
17764;BME280;22245;52.832;13.816;2022-08-19T15:28:55;100835.03;;;25.27;69.83
17764;BME280;22245;52.832;13.816;2022-08-19T15:32:18;100831.56;;;25.20;69.93
17764;BME280;22245;52.832;13.816;2022-08-19T15:35:40;100828.38;;;25.23;70.71
17764;BME280;22245;52.832;13.816;2022-08-19T15:39:04;100844.72;;;25.23;70.11
17764;BME280;22245;52.832;13.816;2022-08-19T15:42:29;100840.72;;;25.07;70.52
17764;BME280;22245;52.832;13.816;2022-08-19T15:45:51;100846.22;;;25.00;70.89
17764;BME280;22245;52.832;13.816;2022-08-19T15:49:15;100853.34;;;25.01;71.01
17764;BME280;22245;52.832;13.816;2022-08-19T15:52:45;100859.84;;;25.00;70.87
17764;BME280;22245;52.832;13.816;2022-08-19T15:56:10;100866.34;;;24.99;71.21
17764;BME280;22245;52.832;13.816;2022-08-19T15:59:33;100875.31;;;24.81;72.19
17764;BME280;22245;52.832;13.816;2022-08-19T16:03:13;100879.09;;;24.80;72.19
17764;BME280;22245;52.832;13.816;2022-08-19T16:07:00;100889.88;;;24.61;72.57
17764;BME280;22245;52.832;13.816;2022-08-19T16:10:24;100899.56;;;24.57;73.18
17764;BME280;22245;52.832;13.816;2022-08-19T16:13:49;100900.44;;;24.51;72.62
17764;BME280;22245;52.832;13.816;2022-08-19T16:17:11;100894.03;;;24.38;73.05
17764;BME280;22245;52.832;13.816;2022-08-19T16:20:33;100904.31;;;24.36;73.31
17764;BME280;22245;52.832;13.816;2022-08-19T16:23:56;100903.28;;;24.31;73.27
17764;BME280;22245;52.832;13.816;2022-08-19T16:27:19;100908.75;;;24.31;73.28
17764;BME280;22245;52.832;13.816;2022-08-19T16:30:43;100913.84;;;24.13;73.84
17764;BME280;22245;52.832;13.816;2022-08-19T16:34:11;100918.09;;;24.03;74.12
17764;BME280;22245;52.832;13.816;2022-08-19T16:37:33;100915.00;;;23.85;74.92
17764;BME280;22245;52.832;13.816;2022-08-19T16:40:55;100907.06;;;23.84;74.80
17764;BME280;22245;52.832;13.816;2022-08-19T16:44:19;100908.56;;;23.73;75.26
17764;BME280;22245;52.832;13.816;2022-08-19T16:47:42;100901.28;;;23.67;75.47
17764;BME280;22245;52.832;13.816;2022-08-19T16:51:04;100909.00;;;23.70;75.44
17764;BME280;22245;52.832;13.816;2022-08-19T16:54:28;100901.72;;;23.64;75.57
17764;BME280;22245;52.832;13.816;2022-08-19T16:57:51;100908.81;;;23.65;75.86
17764;BME280;22245;52.832;13.816;2022-08-19T17:01:13;100906.28;;;23.63;75.82
17764;BME280;22245;52.832;13.816;2022-08-19T17:04:36;100907.56;;;23.61;75.77
17764;BME280;22245;52.832;13.816;2022-08-19T17:07:58;100902.56;;;23.51;76.45
17764;BME280;22245;52.832;13.816;2022-08-19T17:11:21;100908.69;;;23.39;77.01
17764;BME280;22245;52.832;13.816;2022-08-19T17:14:45;100907.81;;;23.39;77.11
17764;BME280;22245;52.832;13.816;2022-08-19T17:18:08;100914.50;;;23.43;77.27
17764;BME280;22245;52.832;13.816;2022-08-19T17:21:33;100904.47;;;23.44;77.37
17764;BME280;22245;52.832;13.816;2022-08-19T17:24:55;100901.56;;;23.38;77.36
17764;BME280;22245;52.832;13.816;2022-08-19T17:28:19;100906.16;;;23.38;77.36
17764;BME280;22245;52.832;13.816;2022-08-19T17:31:41;100907.81;;;23.52;77.08
17764;BME280;22245;52.832;13.816;2022-08-19T17:35:04;100917.03;;;23.51;76.70